createdAt,value
2019-05-21T00:01:24.463Z,17.09
2019-05-21T00:03:58.086Z,17.02
2019-05-21T00:06:31.480Z,17.03
2019-05-21T00:09:05.617Z,16.97
2019-05-21T00:11:39.421Z,17.01
2019-05-21T00:14:30.741Z,17.10
2019-05-21T00:17:13.468Z,17.00
2019-05-21T00:19:46.949Z,16.79
2019-05-21T00:22:20.262Z,16.82
2019-05-21T00:25:03.431Z,16.84
2019-05-21T00:27:37.747Z,16.78
2019-05-21T00:30:46.883Z,16.71
2019-05-21T00:33:55.877Z,16.68
2019-05-21T00:37:07.110Z,16.66
2019-05-21T00:40:26.037Z,16.66
2019-05-21T00:42:59.516Z,16.58
2019-05-21T00:45:41.756Z,16.47
2019-05-21T00:48:26.220Z,16.52
2019-05-21T00:50:59.391Z,16.44
2019-05-21T00:53:34.652Z,16.41
2019-05-21T00:56:08.287Z,16.41
2019-05-21T00:58:41.931Z,16.45
2019-05-21T01:01:15.098Z,16.48
2019-05-21T01:03:48.606Z,16.45
2019-05-21T01:06:22.107Z,16.40
2019-05-21T01:08:55.403Z,16.40
2019-05-21T01:11:37.444Z,16.37
2019-05-21T01:14:11.013Z,16.28
2019-05-21T01:16:44.733Z,16.28
2019-05-21T01:19:17.933Z,16.29
2019-05-21T01:21:51.496Z,16.24
2019-05-21T01:24:24.768Z,16.17
2019-05-21T01:27:10.148Z,16.17
2019-05-21T01:29:44.083Z,16.17
2019-05-21T01:32:18.730Z,16.18
2019-05-21T01:35:17.199Z,16.24
2019-05-21T01:37:44.829Z,16.19
2019-05-21T01:40:28.071Z,16.29
2019-05-21T01:43:03.433Z,16.16
2019-05-21T01:45:54.082Z,16.18
2019-05-21T01:48:38.222Z,16.03
2019-05-21T01:51:12.275Z,15.92
2019-05-21T01:53:58.131Z,15.92
2019-05-21T01:56:32.585Z,15.77
2019-05-21T01:59:15.396Z,15.85
2019-05-21T02:01:57.307Z,15.81
2019-05-21T02:04:31.236Z,15.69
2019-05-21T02:07:04.286Z,15.69
2019-05-21T02:09:56.743Z,15.67
2019-05-21T02:12:30.589Z,15.66
2019-05-21T02:15:04.956Z,15.61
2019-05-21T02:17:40.440Z,15.59
2019-05-21T02:20:22.500Z,15.67
2019-05-21T02:22:54.467Z,15.58
2019-05-21T02:25:28.066Z,15.57
2019-05-21T02:28:03.667Z,15.48
2019-05-21T02:30:47.018Z,15.47
2019-05-21T02:33:21.974Z,15.45
2019-05-21T02:36:18.566Z,15.50
2019-05-21T02:38:53.279Z,15.47
2019-05-21T02:41:27.292Z,15.46
2019-05-21T02:44:02.077Z,15.51
2019-05-21T02:46:35.752Z,15.51
2019-05-21T02:49:09.814Z,15.57
2019-05-21T02:51:43.427Z,15.59
2019-05-21T02:54:16.031Z,15.55
2019-05-21T02:56:49.778Z,15.51
2019-05-21T02:59:23.453Z,15.52
2019-05-21T03:02:05.435Z,15.53
2019-05-21T03:04:37.813Z,15.49
2019-05-21T03:07:18.203Z,15.46
2019-05-21T03:09:51.085Z,15.44
2019-05-21T03:12:39.915Z,15.47
2019-05-21T03:15:22.837Z,15.47
2019-05-21T03:17:56.473Z,15.37
2019-05-21T03:20:29.187Z,15.35
2019-05-21T03:23:02.660Z,15.28
2019-05-21T03:25:35.967Z,15.26
2019-05-21T03:28:08.818Z,15.24
2019-05-21T03:30:41.521Z,15.23
2019-05-21T03:33:25.128Z,15.31
2019-05-21T03:36:08.335Z,15.26
2019-05-21T03:38:50.771Z,15.13
2019-05-21T03:41:35.100Z,15.08
2019-05-21T03:44:09.178Z,14.99
2019-05-21T03:46:43.071Z,15.03
2019-05-21T03:49:16.656Z,15.04
2019-05-21T03:51:50.205Z,15.12
2019-05-21T03:54:24.809Z,15.18
2019-05-21T03:56:59.840Z,15.23
2019-05-21T03:59:33.131Z,15.29
2019-05-21T04:02:18.173Z,15.39
2019-05-21T04:04:50.284Z,15.34
2019-05-21T04:07:39.837Z,15.27
2019-05-21T04:10:28.764Z,15.20
2019-05-21T04:13:09.591Z,15.16
2019-05-21T04:16:24.611Z,15.24
2019-05-21T04:19:22.098Z,15.27
2019-05-21T04:22:17.297Z,15.29
2019-05-21T04:24:50.831Z,15.28
2019-05-21T04:27:34.518Z,15.36
2019-05-21T04:30:11.240Z,15.34
2019-05-21T04:32:43.487Z,15.41
2019-05-21T04:35:16.777Z,15.43
2019-05-21T04:37:52.860Z,15.46
2019-05-21T04:40:42.121Z,15.56
2019-05-21T04:43:24.771Z,15.58
2019-05-21T04:45:59.115Z,15.53
2019-05-21T04:48:30.921Z,15.52
2019-05-21T04:51:03.607Z,15.57
2019-05-21T04:53:51.658Z,15.62
2019-05-21T04:56:26.921Z,15.61
2019-05-21T04:59:12.670Z,15.67
2019-05-21T05:02:01.521Z,15.63
2019-05-21T05:04:35.344Z,15.67
2019-05-21T05:07:08.885Z,15.62
2019-05-21T05:09:53.359Z,15.66
2019-05-21T05:12:27.324Z,15.63
2019-05-21T05:15:01.030Z,15.68
2019-05-21T05:17:34.511Z,15.68
2019-05-21T05:20:08.939Z,15.67
2019-05-21T05:22:51.667Z,15.76
2019-05-21T05:25:34.908Z,15.77
2019-05-21T05:28:08.584Z,15.69
2019-05-21T05:30:41.920Z,15.64
2019-05-21T05:33:24.539Z,15.66
2019-05-21T05:35:56.566Z,15.62
2019-05-21T05:38:29.660Z,15.62
2019-05-21T05:41:03.039Z,15.60
2019-05-21T05:43:36.308Z,15.61
2019-05-21T05:46:09.520Z,15.62
2019-05-21T05:48:56.903Z,15.64
2019-05-21T05:51:30.817Z,15.61
2019-05-21T05:54:13.402Z,15.70
2019-05-21T05:56:47.564Z,15.63
2019-05-21T05:59:22.339Z,15.65
2019-05-21T06:02:04.679Z,15.69
2019-05-21T06:04:38.286Z,15.68
2019-05-21T06:07:11.504Z,15.63
2019-05-21T06:09:45.157Z,15.61
2019-05-21T06:12:19.164Z,15.67
2019-05-21T06:14:53.122Z,15.63
2019-05-21T06:17:35.721Z,15.65
2019-05-21T06:20:08.959Z,15.60
2019-05-21T06:22:42.200Z,15.65
2019-05-21T06:25:16.290Z,15.61
2019-05-21T06:27:50.747Z,15.63
2019-05-21T06:30:33.482Z,15.68
2019-05-21T06:33:17.653Z,15.67
2019-05-21T06:35:51.317Z,15.60
2019-05-21T06:38:24.971Z,15.61
2019-05-21T06:40:59.015Z,15.64
2019-05-21T06:43:41.112Z,15.68
2019-05-21T06:46:14.809Z,15.65
2019-05-21T06:48:49.450Z,15.77
2019-05-21T06:51:23.142Z,15.79
2019-05-21T06:53:56.562Z,15.79
2019-05-21T06:56:30.186Z,15.83
2019-05-21T06:59:03.825Z,15.77
2019-05-21T07:01:37.115Z,15.80
2019-05-21T07:04:11.528Z,15.81
2019-05-21T07:06:44.980Z,15.75
2019-05-21T07:09:18.771Z,15.68
2019-05-21T07:11:53.207Z,15.60
2019-05-21T07:14:43.098Z,15.61
2019-05-21T07:17:17.365Z,15.58
2019-05-21T07:20:07.665Z,15.73
2019-05-21T07:22:51.086Z,15.67
2019-05-21T07:25:24.418Z,15.64
2019-05-21T07:28:06.546Z,15.69
2019-05-21T07:30:40.783Z,15.60
2019-05-21T07:33:25.969Z,15.74
2019-05-21T07:36:10.595Z,15.76
2019-05-21T07:38:54.336Z,15.78
2019-05-21T07:41:28.173Z,15.70
2019-05-21T07:44:01.485Z,15.71
2019-05-21T07:46:39.026Z,15.63
2019-05-21T07:49:10.727Z,15.69
2019-05-21T07:51:44.475Z,15.68
2019-05-21T07:54:18.589Z,15.71
2019-05-21T07:57:00.836Z,15.82
2019-05-21T07:59:34.308Z,15.68
2019-05-21T08:02:07.649Z,15.55
2019-05-21T08:04:42.679Z,15.50
2019-05-21T08:07:16.394Z,15.47
2019-05-21T08:09:50.648Z,15.49
2019-05-21T08:12:39.480Z,15.46
2019-05-21T08:15:10.663Z,15.35
2019-05-21T08:17:44.290Z,15.30
2019-05-21T08:20:19.259Z,15.19
2019-05-21T08:22:52.443Z,15.13
2019-05-21T08:25:26.823Z,15.10
2019-05-21T08:28:00.498Z,15.07
2019-05-21T08:30:33.711Z,14.99
2019-05-21T08:33:07.269Z,15.05
2019-05-21T08:35:41.144Z,15.04
2019-05-21T08:38:14.940Z,15.02
2019-05-21T08:40:48.505Z,15.11
2019-05-21T08:43:22.374Z,15.14
2019-05-21T08:46:04.790Z,15.19
2019-05-21T08:48:38.331Z,15.15
2019-05-21T08:51:12.623Z,15.14
2019-05-21T08:53:54.747Z,15.13
2019-05-21T08:56:27.924Z,15.13
2019-05-21T08:59:01.454Z,15.13
2019-05-21T09:01:34.767Z,15.17
2019-05-21T09:04:16.925Z,15.24
2019-05-21T09:06:50.467Z,15.21
2019-05-21T09:09:23.939Z,15.20
2019-05-21T09:11:57.830Z,15.05
2019-05-21T09:14:31.472Z,15.01
2019-05-21T09:17:06.701Z,15.07
2019-05-21T09:19:51.583Z,15.15
2019-05-21T09:22:24.931Z,15.15
2019-05-21T09:24:58.145Z,15.20
2019-05-21T09:27:46.491Z,15.30
2019-05-21T09:30:20.650Z,15.26
2019-05-21T09:33:05.681Z,15.32
2019-05-21T09:35:39.709Z,15.27
2019-05-21T09:38:23.736Z,15.41
2019-05-21T09:41:06.959Z,15.33
2019-05-21T09:43:40.152Z,15.36
2019-05-21T09:46:14.162Z,15.45
2019-05-21T09:48:47.643Z,15.49
2019-05-21T09:51:21.114Z,15.53
2019-05-21T09:53:54.703Z,15.56
2019-05-21T09:56:34.153Z,15.74
2019-05-21T09:59:18.040Z,15.80
2019-05-21T10:01:53.046Z,15.87
2019-05-21T10:04:26.303Z,15.94
2019-05-21T10:07:00.283Z,16.03
2019-05-21T10:09:33.994Z,16.17
2019-05-21T10:12:07.569Z,16.28
2019-05-21T10:14:41.245Z,16.24
2019-05-21T10:17:14.999Z,16.01
2019-05-21T10:19:58.964Z,16.11
2019-05-21T10:22:32.738Z,16.09
2019-05-21T10:25:07.028Z,15.94
2019-05-21T10:27:48.927Z,16.00
2019-05-21T10:30:22.205Z,16.14
2019-05-21T10:33:08.643Z,16.20
2019-05-21T10:35:51.880Z,16.09
2019-05-21T10:38:25.900Z,15.99
2019-05-21T10:40:59.483Z,15.98
2019-05-21T10:43:33.194Z,16.02
2019-05-21T10:46:07.410Z,15.97
2019-05-21T10:48:53.372Z,16.03
2019-05-21T10:51:27.103Z,16.17
2019-05-21T10:54:02.408Z,16.15
2019-05-21T10:56:47.415Z,16.18
2019-05-21T10:59:11.759Z,16.17
2019-05-21T11:02:17.285Z,16.18
2019-05-21T11:05:17.670Z,16.25
2019-05-21T11:08:23.370Z,16.25
2019-05-21T11:10:41.210Z,15.95
2019-05-21T11:13:15.380Z,15.95
2019-05-21T11:15:49.038Z,15.76
2019-05-21T11:18:22.302Z,15.65
2019-05-21T11:20:55.606Z,15.66
2019-05-21T11:23:30.460Z,15.80
2019-05-21T11:26:13.134Z,15.80
2019-05-21T11:28:55.838Z,15.68
2019-05-21T11:31:55.778Z,15.64
2019-05-21T11:34:15.823Z,15.64
2019-05-21T11:36:49.157Z,15.80
2019-05-21T11:39:23.118Z,15.88
2019-05-21T11:41:57.431Z,15.91
2019-05-21T11:44:45.758Z,15.94
2019-05-21T11:47:19.131Z,15.74
2019-05-21T11:49:52.803Z,15.64
2019-05-21T11:52:26.245Z,15.59
2019-05-21T11:55:00.338Z,15.55
2019-05-21T11:57:46.608Z,15.43
2019-05-21T12:00:22.083Z,15.37
2019-05-21T12:03:06.639Z,15.44
2019-05-21T12:05:39.972Z,15.30
2019-05-21T12:08:13.556Z,15.29
2019-05-21T12:10:47.191Z,15.36
2019-05-21T12:13:20.764Z,15.44
2019-05-21T12:15:55.198Z,15.41
2019-05-21T12:18:37.612Z,15.38
2019-05-21T12:21:10.816Z,15.22
2019-05-21T12:23:44.347Z,15.24
2019-05-21T12:26:18.136Z,15.26
2019-05-21T12:28:51.828Z,15.29
2019-05-21T12:31:25.464Z,15.35
2019-05-21T12:33:59.524Z,15.41
2019-05-21T12:36:32.770Z,15.47
2019-05-21T12:39:14.266Z,15.53
2019-05-21T12:41:43.710Z,15.44
2019-05-21T12:44:25.919Z,15.50
2019-05-21T12:47:00.106Z,15.55
2019-05-21T12:49:45.048Z,15.55
2019-05-21T12:52:19.345Z,15.50
2019-05-21T12:55:02.250Z,15.60
2019-05-21T12:57:35.788Z,15.53
2019-05-21T13:00:12.367Z,15.55
2019-05-21T13:02:54.611Z,15.59
2019-05-21T13:05:28.205Z,15.58
2019-05-21T13:08:01.554Z,15.59
2019-05-21T13:10:35.095Z,15.68
2019-05-21T13:13:09.568Z,15.88
2019-05-21T13:15:52.384Z,15.88
2019-05-21T13:18:34.972Z,15.97
2019-05-21T13:21:17.540Z,15.90
2019-05-21T13:23:51.537Z,15.84
2019-05-21T13:26:34.181Z,15.86
2019-05-21T13:29:17.469Z,15.84
2019-05-21T13:31:50.683Z,15.70
2019-05-21T13:34:25.421Z,15.66
2019-05-21T13:37:00.203Z,15.42
2019-05-21T13:39:48.709Z,15.47
2019-05-21T13:42:09.158Z,15.49
2019-05-21T13:44:42.750Z,15.26
2019-05-21T13:47:16.918Z,15.22
2019-05-21T13:49:59.308Z,15.22
2019-05-21T13:52:33.178Z,15.11
2019-05-21T13:55:06.823Z,14.97
2019-05-21T13:57:42.581Z,14.95
2019-05-21T14:00:21.855Z,14.84
2019-05-21T14:02:54.709Z,14.69
2019-05-21T14:05:38.437Z,14.64
2019-05-21T14:08:12.793Z,14.58
2019-05-21T14:10:46.451Z,14.48
2019-05-21T14:13:20.432Z,14.42
2019-05-21T14:15:54.591Z,14.42
2019-05-21T14:18:31.494Z,14.48
2019-05-21T14:21:14.437Z,14.49
2019-05-21T14:23:59.004Z,14.53
2019-05-21T14:26:32.530Z,14.50
2019-05-21T14:29:06.399Z,14.49
2019-05-21T14:31:39.578Z,14.52
2019-05-21T14:34:12.909Z,14.41
2019-05-21T14:36:46.972Z,14.45
2019-05-21T14:39:20.636Z,14.31
2019-05-21T14:41:54.358Z,14.32
2019-05-21T14:44:34.650Z,14.28
2019-05-21T14:47:07.907Z,14.25
2019-05-21T14:49:41.927Z,14.32
2019-05-21T14:52:24.609Z,14.39
2019-05-21T14:54:58.113Z,14.38
2019-05-21T14:57:31.651Z,14.33
2019-05-21T15:00:10.628Z,14.36
2019-05-21T15:03:00.518Z,14.44
2019-05-21T15:05:34.872Z,14.32
2019-05-21T15:08:20.737Z,14.26
2019-05-21T15:11:03.722Z,14.31
2019-05-21T15:13:46.262Z,14.30
2019-05-21T15:16:28.510Z,14.37
2019-05-21T15:19:02.275Z,14.33
2019-05-21T15:21:41.017Z,14.34
2019-05-21T15:24:25.363Z,14.44
2019-05-21T15:27:14.280Z,14.46
2019-05-21T15:29:59.437Z,14.45
2019-05-21T15:32:41.731Z,14.24
2019-05-21T15:35:15.050Z,14.01
2019-05-21T15:37:48.546Z,13.97
2019-05-21T15:40:22.124Z,14.02
2019-05-21T15:42:55.959Z,13.86
2019-05-21T15:45:29.259Z,13.80
2019-05-21T15:48:03.518Z,13.79
2019-05-21T15:50:36.767Z,13.75
2019-05-21T15:53:10.567Z,13.78
2019-05-21T15:55:44.474Z,13.77
2019-05-21T15:58:26.606Z,13.81
2019-05-21T16:00:57.429Z,13.79
2019-05-21T16:03:30.758Z,13.82
2019-05-21T16:06:04.016Z,13.86
2019-05-21T16:08:47.132Z,13.88
2019-05-21T16:11:28.467Z,13.87
2019-05-21T16:14:08.219Z,13.83
2019-05-21T16:16:41.565Z,13.73
2019-05-21T16:19:15.341Z,13.71
2019-05-21T16:21:49.228Z,13.67
2019-05-21T16:24:22.897Z,13.70
2019-05-21T16:26:56.229Z,13.74
2019-05-21T16:29:30.950Z,13.80
2019-05-21T16:32:05.121Z,13.75
2019-05-21T16:34:38.565Z,13.74
2019-05-21T16:37:12.356Z,13.70
2019-05-21T16:39:45.608Z,13.70
2019-05-21T16:42:19.466Z,13.69
2019-05-21T16:44:53.025Z,13.68
2019-05-21T16:47:43.959Z,13.63
2019-05-21T16:50:03.838Z,13.58
2019-05-21T16:52:47.313Z,13.61
2019-05-21T16:55:20.926Z,13.56
2019-05-21T16:57:56.435Z,13.67
2019-05-21T17:00:29.952Z,13.68
2019-05-21T17:03:05.359Z,13.68
2019-05-21T17:05:38.639Z,13.59
2019-05-21T17:08:12.532Z,13.54
2019-05-21T17:10:49.098Z,13.49
2019-05-21T17:13:23.053Z,13.51
2019-05-21T17:15:56.968Z,13.45
2019-05-21T17:18:31.092Z,13.43
2019-05-21T17:21:15.446Z,13.45
2019-05-21T17:23:49.199Z,13.38
2019-05-21T17:26:26.166Z,13.39
2019-05-21T17:28:59.596Z,13.38
2019-05-21T17:31:33.375Z,13.38
2019-05-21T17:34:07.402Z,13.36
2019-05-21T17:36:50.224Z,13.39
2019-05-21T17:39:34.813Z,13.40
2019-05-21T17:42:15.415Z,13.36
2019-05-21T17:44:43.822Z,13.30
2019-05-21T17:47:17.416Z,13.29
2019-05-21T17:49:50.523Z,13.22
2019-05-21T17:52:24.184Z,13.23
2019-05-21T17:54:57.826Z,13.23
2019-05-21T17:57:32.632Z,13.21
2019-05-21T18:00:07.511Z,13.24
2019-05-21T18:03:02.370Z,13.32
2019-05-21T18:05:36.729Z,13.33
2019-05-21T18:08:08.870Z,13.35
2019-05-21T18:10:42.901Z,13.40
2019-05-21T18:13:18.045Z,13.30
2019-05-21T18:15:52.117Z,13.24
2019-05-21T18:18:27.578Z,13.22
2019-05-21T18:21:11.136Z,13.33
2019-05-21T18:23:44.645Z,13.28
2019-05-21T18:26:18.590Z,13.20
2019-05-21T18:28:52.500Z,13.15
2019-05-21T18:31:26.512Z,13.09
2019-05-21T18:34:09.222Z,13.08
2019-05-21T18:36:42.467Z,13.06
2019-05-21T18:39:16.468Z,13.08
2019-05-21T18:41:49.831Z,13.13
2019-05-21T18:44:23.028Z,13.11
2019-05-21T18:46:57.833Z,13.08
2019-05-21T18:49:31.259Z,13.04
2019-05-21T18:52:04.116Z,13.06
2019-05-21T18:54:37.920Z,13.06
2019-05-21T18:57:11.786Z,13.03
2019-05-21T18:59:46.617Z,12.95
2019-05-21T19:02:20.312Z,12.97
2019-05-21T19:04:55.666Z,12.93
2019-05-21T19:07:28.906Z,12.87
2019-05-21T19:10:02.576Z,12.84
2019-05-21T19:12:38.817Z,12.85
2019-05-21T19:15:13.078Z,12.86
2019-05-21T19:17:46.773Z,12.84
2019-05-21T19:20:20.368Z,12.85
2019-05-21T19:22:54.553Z,12.84
2019-05-21T19:25:36.889Z,12.97
2019-05-21T19:28:23.344Z,12.94
2019-05-21T19:31:10.331Z,12.95
2019-05-21T19:33:43.866Z,12.87
2019-05-21T19:36:17.172Z,12.84
2019-05-21T19:38:52.263Z,12.81
2019-05-21T19:41:26.195Z,12.83
2019-05-21T19:43:59.968Z,12.78
2019-05-21T19:46:48.923Z,12.77
2019-05-21T19:49:32.607Z,12.80
2019-05-21T19:52:10.391Z,12.76
2019-05-21T19:54:54.195Z,12.73
2019-05-21T19:57:33.063Z,12.66
2019-05-21T20:00:10.995Z,12.63
2019-05-21T20:02:48.378Z,12.56
2019-05-21T20:05:22.176Z,12.55
2019-05-21T20:07:56.551Z,12.50
2019-05-21T20:10:34.299Z,12.46
2019-05-21T20:13:32.158Z,12.50
2019-05-21T20:16:01.204Z,12.40
2019-05-21T20:18:37.332Z,12.43
2019-05-21T20:21:18.703Z,12.38
2019-05-21T20:24:02.568Z,12.40
2019-05-21T20:26:45.497Z,12.40
2019-05-21T20:29:28.558Z,12.36
2019-05-21T20:32:14.138Z,12.38
2019-05-21T20:34:50.976Z,12.40
2019-05-21T20:37:34.131Z,12.36
2019-05-21T20:40:19.009Z,12.29
2019-05-21T20:42:53.029Z,12.25
2019-05-21T20:45:39.271Z,12.22
2019-05-21T20:48:26.317Z,12.25
2019-05-21T20:51:04.183Z,12.19
2019-05-21T20:53:38.268Z,12.17
2019-05-21T20:56:15.739Z,12.12
2019-05-21T20:59:01.533Z,12.12
2019-05-21T21:01:36.400Z,12.06
2019-05-21T21:04:10.494Z,12.10
2019-05-21T21:06:44.659Z,12.06
2019-05-21T21:09:26.750Z,12.05
2019-05-21T21:12:01.143Z,12.02
2019-05-21T21:14:45.697Z,12.02
2019-05-21T21:17:19.432Z,11.99
2019-05-21T21:19:53.683Z,11.98
2019-05-21T21:22:27.656Z,12.00
2019-05-21T21:25:01.414Z,12.05
2019-05-21T21:27:36.549Z,12.05
2019-05-21T21:30:10.878Z,11.97
2019-05-21T21:32:54.136Z,12.00
2019-05-21T21:35:27.812Z,11.97
2019-05-21T21:38:02.430Z,11.89
2019-05-21T21:40:53.157Z,11.89
2019-05-21T21:43:36.030Z,11.91
2019-05-21T21:46:10.201Z,11.94
2019-05-21T21:48:52.605Z,11.92
2019-05-21T21:51:26.796Z,11.85
2019-05-21T21:54:01.161Z,11.85
2019-05-21T21:56:34.349Z,11.82
2019-05-21T21:59:07.826Z,11.79
2019-05-21T22:01:56.695Z,11.78
2019-05-21T22:04:40.439Z,11.84
2019-05-21T22:07:14.227Z,11.79
2019-05-21T22:09:47.591Z,11.80
2019-05-21T22:12:31.516Z,11.81
2019-05-21T22:15:14.457Z,11.78
2019-05-21T22:17:56.378Z,11.73
2019-05-21T22:20:29.957Z,11.66
2019-05-21T22:23:04.193Z,11.70
2019-05-21T22:25:47.475Z,11.73
2019-05-21T22:28:21.639Z,11.68
2019-05-21T22:30:55.850Z,11.63
2019-05-21T22:33:45.426Z,11.66
2019-05-21T22:36:19.404Z,11.57
2019-05-21T22:38:53.050Z,11.58
2019-05-21T22:41:27.141Z,11.56
2019-05-21T22:44:10.092Z,11.61
2019-05-21T22:46:53.976Z,11.55
2019-05-21T22:49:33.074Z,11.55
2019-05-21T22:52:05.001Z,11.57
2019-05-21T22:54:47.885Z,11.62
2019-05-21T22:57:21.457Z,11.56
2019-05-21T22:59:55.114Z,11.56
2019-05-21T23:02:31.316Z,11.55
2019-05-21T23:05:14.388Z,11.57
2019-05-21T23:07:59.014Z,11.59
2019-05-21T23:10:33.282Z,11.59
2019-05-21T23:13:07.428Z,11.61
2019-05-21T23:15:50.852Z,11.64
2019-05-21T23:18:25.656Z,11.60
2019-05-21T23:21:13.723Z,11.64
2019-05-21T23:23:57.363Z,11.61
2019-05-21T23:26:49.313Z,11.61
2019-05-21T23:29:24.098Z,11.52
2019-05-21T23:31:57.421Z,11.53
2019-05-21T23:34:31.534Z,11.52
2019-05-21T23:37:07.241Z,11.46
2019-05-21T23:40:01.195Z,11.51
2019-05-21T23:42:34.832Z,11.51
2019-05-21T23:45:18.804Z,11.55
2019-05-21T23:47:51.991Z,11.47
2019-05-21T23:50:26.591Z,11.49
2019-05-21T23:53:09.898Z,11.55
2019-05-21T23:55:44.025Z,11.55
2019-05-21T23:58:18.112Z,11.52
